createdAt,value
2022-11-04T00:00:31.561Z,59.50
2022-11-04T00:03:04.090Z,48.42
2022-11-04T00:05:33.771Z,47.17
2022-11-04T00:08:20.422Z,63.47
2022-11-04T00:11:07.246Z,65.97
2022-11-04T00:13:36.286Z,53.92
2022-11-04T00:16:23.820Z,59.63
2022-11-04T00:18:54.645Z,55.25
2022-11-04T00:21:41.736Z,60.30
2022-11-04T00:24:29.929Z,52.88
2022-11-04T00:27:16.825Z,54.47
2022-11-04T00:29:46.149Z,58.45
2022-11-04T00:32:47.508Z,53.03
2022-11-04T00:35:18.316Z,55.15
2022-11-04T00:37:47.803Z,75.97
2022-11-04T00:40:18.308Z,54.40
2022-11-04T00:42:47.832Z,54.80
2022-11-04T00:45:17.047Z,61.00
2022-11-04T00:47:46.563Z,63.17
2022-11-04T00:50:17.212Z,57.25
2022-11-04T00:52:46.329Z,52.58
2022-11-04T00:55:15.821Z,61.25
2022-11-04T00:57:45.005Z,51.03
2022-11-04T01:00:16.345Z,54.83
2022-11-04T01:02:45.615Z,53.05
2022-11-04T01:05:16.449Z,55.40
2022-11-04T01:07:45.664Z,60.60
2022-11-04T01:10:15.085Z,58.70
2022-11-04T01:12:44.175Z,52.42
2022-11-04T01:15:13.676Z,53.08
2022-11-04T01:17:42.871Z,57.70
2022-11-04T01:20:13.971Z,44.42
2022-11-04T01:22:44.774Z,55.17
2022-11-04T01:25:14.171Z,48.97
2022-11-04T01:27:43.283Z,51.60
2022-11-04T01:30:13.829Z,53.95
2022-11-04T01:32:43.276Z,51.05
2022-11-04T01:35:12.683Z,43.78
2022-11-04T01:37:43.090Z,48.58
2022-11-04T01:40:13.027Z,45.10
2022-11-04T01:42:42.069Z,45.70
2022-11-04T01:45:15.551Z,47.65
2022-11-04T01:47:50.722Z,51.10
2022-11-04T01:50:25.107Z,45.33
2022-11-04T01:53:00.027Z,42.75
2022-11-04T01:55:33.037Z,48.72
2022-11-04T01:58:07.344Z,41.63
2022-11-04T02:00:39.057Z,46.25
2022-11-04T02:03:12.750Z,45.42
2022-11-04T02:05:42.994Z,51.33
2022-11-04T02:08:15.580Z,42.30
2022-11-04T02:10:53.683Z,41.47
2022-11-04T02:13:21.985Z,40.17
2022-11-04T02:15:59.674Z,45.65
2022-11-04T02:18:52.485Z,44.65
2022-11-04T02:21:57.086Z,50.38
2022-11-04T02:25:02.867Z,43.70
2022-11-04T02:27:46.007Z,44.25
2022-11-04T02:30:19.126Z,46.40
2022-11-04T02:33:19.015Z,48.78
2022-11-04T02:36:00.114Z,39.42
2022-11-04T02:38:38.143Z,40.28
2022-11-04T02:41:17.781Z,42.22
2022-11-04T02:44:07.177Z,40.15
2022-11-04T02:46:41.449Z,41.47
2022-11-04T02:49:15.820Z,45.85
2022-11-04T02:51:50.271Z,39.30
2022-11-04T02:54:25.447Z,45.28
2022-11-04T02:56:58.648Z,37.30
2022-11-04T02:59:34.030Z,47.65
2022-11-04T03:02:09.543Z,39.88
2022-11-04T03:04:43.554Z,34.22
2022-11-04T03:07:16.408Z,45.25
2022-11-04T03:09:51.160Z,42.00
2022-11-04T03:12:26.548Z,41.45
2022-11-04T03:15:03.128Z,34.85
2022-11-04T03:17:38.768Z,38.58
2022-11-04T03:20:14.523Z,40.58
2022-11-04T03:22:43.790Z,33.72
2022-11-04T03:25:13.531Z,36.83
2022-11-04T03:27:49.723Z,40.55
2022-11-04T03:35:34.020Z,32.33
2022-11-04T03:38:04.196Z,39.10
2022-11-04T03:40:33.412Z,40.97
2022-11-04T03:43:10.212Z,32.72
2022-11-04T03:45:40.424Z,36.92
2022-11-04T03:48:10.162Z,34.58
2022-11-04T03:50:44.649Z,36.78
2022-11-04T03:53:15.567Z,40.25
2022-11-04T03:55:57.801Z,33.47
2022-11-04T03:58:40.120Z,35.58
2022-11-04T04:01:20.967Z,32.88
2022-11-04T04:03:57.721Z,31.73
2022-11-04T04:06:32.600Z,36.60
2022-11-04T04:09:09.657Z,38.72
2022-11-04T04:11:46.023Z,34.63
2022-11-04T04:14:39.231Z,38.00
2022-11-04T04:17:17.509Z,36.22
2022-11-04T04:19:53.446Z,33.72
2022-11-04T04:22:28.375Z,37.97
2022-11-04T04:25:20.510Z,35.92
2022-11-04T04:27:53.041Z,38.47
2022-11-04T04:30:22.577Z,34.05
2022-11-04T04:32:55.909Z,31.65
2022-11-04T04:35:44.703Z,35.38
2022-11-04T04:38:39.884Z,32.00
2022-11-04T04:41:30.546Z,33.50
2022-11-04T04:44:23.501Z,31.25
2022-11-04T04:46:55.565Z,34.92
2022-11-04T04:49:24.668Z,28.38
2022-11-04T04:51:54.010Z,32.38
2022-11-04T04:54:24.472Z,33.38
2022-11-04T04:56:53.822Z,29.63
2022-11-04T04:59:22.918Z,34.35
2022-11-04T05:01:52.344Z,40.40
2022-11-04T05:04:21.539Z,35.67
2022-11-04T05:06:51.064Z,38.45
2022-11-04T05:09:20.143Z,31.65
2022-11-04T05:11:50.934Z,33.47
2022-11-04T05:14:20.045Z,33.17
2022-11-04T05:16:49.457Z,33.75
2022-11-04T05:19:18.472Z,31.58
2022-11-04T05:21:47.891Z,27.52
2022-11-04T05:24:17.046Z,26.95
2022-11-04T05:26:46.417Z,35.60
2022-11-04T05:29:17.023Z,29.98
2022-11-04T05:31:46.560Z,31.25
2022-11-04T05:34:16.289Z,28.25
2022-11-04T05:36:45.731Z,27.75
2022-11-04T05:39:15.387Z,32.55
2022-11-04T05:41:44.762Z,31.77
2022-11-04T05:44:15.918Z,35.17
2022-11-04T05:46:45.292Z,28.75
2022-11-04T05:49:14.543Z,48.33
2022-11-04T05:51:44.575Z,32.10
2022-11-04T05:54:13.648Z,31.45
2022-11-04T05:56:43.030Z,31.60
2022-11-04T05:59:12.025Z,31.45
2022-11-04T06:01:44.153Z,27.45
2022-11-04T06:04:17.661Z,29.30
2022-11-04T06:06:47.344Z,37.03
2022-11-04T06:09:16.525Z,34.30
2022-11-04T06:11:46.414Z,35.28
2022-11-04T06:14:18.758Z,27.20
2022-11-04T06:16:49.820Z,30.77
2022-11-04T06:19:19.086Z,31.55
2022-11-04T06:21:48.371Z,31.17
2022-11-04T06:24:17.401Z,34.10
2022-11-04T06:26:47.146Z,37.90
2022-11-04T06:29:16.285Z,43.00
2022-11-04T06:31:45.821Z,33.30
2022-11-04T06:34:16.585Z,33.10
2022-11-04T06:36:46.237Z,31.70
2022-11-04T06:39:15.327Z,30.30
2022-11-04T06:41:47.463Z,31.77
2022-11-04T06:44:18.178Z,35.55
2022-11-04T06:46:47.624Z,42.10
2022-11-04T06:49:20.414Z,33.95
2022-11-04T06:51:50.038Z,40.35
2022-11-04T06:54:19.909Z,31.10
2022-11-04T06:56:49.761Z,36.13
2022-11-04T06:59:21.000Z,35.00
2022-11-04T07:01:52.324Z,30.10
2022-11-04T07:04:23.009Z,26.48
2022-11-04T07:06:52.599Z,31.20
2022-11-04T07:09:21.734Z,31.77
2022-11-04T07:11:51.294Z,26.20
2022-11-04T07:14:20.389Z,21.75
2022-11-04T07:16:52.346Z,23.83
2022-11-04T07:19:22.793Z,30.25
2022-11-04T07:21:52.362Z,26.48
2022-11-04T07:24:21.435Z,27.52
2022-11-04T07:26:50.751Z,26.60
2022-11-04T07:29:20.179Z,32.15
2022-11-04T07:31:49.709Z,26.73
2022-11-04T07:34:18.887Z,30.45
2022-11-04T07:36:49.703Z,28.30
2022-11-04T07:39:18.796Z,33.30
2022-11-04T07:41:48.162Z,29.70
2022-11-04T07:44:17.224Z,34.15
2022-11-04T07:46:46.778Z,42.72
2022-11-04T07:49:15.862Z,35.70
2022-11-04T07:51:45.333Z,30.85
2022-11-04T07:54:15.873Z,31.25
2022-11-04T07:56:45.285Z,34.75
2022-11-04T07:59:14.373Z,38.28
2022-11-04T08:01:43.830Z,40.67
2022-11-04T08:04:12.970Z,38.28
2022-11-04T08:06:42.619Z,40.20
2022-11-04T08:09:11.667Z,31.23
2022-11-04T08:11:42.617Z,37.88
2022-11-04T08:14:15.726Z,27.50
2022-11-04T08:16:45.813Z,27.65
2022-11-04T08:19:15.021Z,34.67
2022-11-04T08:21:44.518Z,31.20
2022-11-04T08:24:13.712Z,28.05
2022-11-04T08:26:46.358Z,29.75
2022-11-04T08:29:15.661Z,29.73
2022-11-04T08:31:45.090Z,29.85
2022-11-04T08:34:14.783Z,25.42
2022-11-04T08:36:44.177Z,28.95
2022-11-04T08:39:14.223Z,29.85
2022-11-04T08:41:45.668Z,26.67
2022-11-04T08:44:15.286Z,20.52
2022-11-04T08:46:46.289Z,29.77
2022-11-04T08:49:20.676Z,22.65
2022-11-04T08:51:56.727Z,30.40
2022-11-04T08:54:26.418Z,23.27
2022-11-04T08:56:57.165Z,28.15
2022-11-04T08:59:26.331Z,24.27
2022-11-04T09:01:55.958Z,28.02
2022-11-04T09:04:25.133Z,35.40
2022-11-04T09:06:56.397Z,33.22
2022-11-04T09:09:25.763Z,42.35
2022-11-04T09:11:57.317Z,20.95
2022-11-04T09:14:26.557Z,22.35
2022-11-04T09:16:57.963Z,19.80
2022-11-04T09:19:27.277Z,16.67
2022-11-04T09:21:56.759Z,11.90
2022-11-04T09:24:26.158Z,13.00
2022-11-04T09:26:56.874Z,16.58
2022-11-04T09:29:25.921Z,14.32
2022-11-04T09:31:56.423Z,13.65
2022-11-04T09:34:25.530Z,20.33
2022-11-04T09:36:57.348Z,10.23
2022-11-04T09:39:27.533Z,14.55
2022-11-04T09:42:23.053Z,16.63
2022-11-04T09:45:20.762Z,17.25
2022-11-04T09:47:49.384Z,16.45
2022-11-04T09:50:24.313Z,13.43
2022-11-04T09:52:58.224Z,11.38
2022-11-04T09:55:33.697Z,14.13
2022-11-04T09:58:05.075Z,13.77
2022-11-04T10:00:39.234Z,10.70
2022-11-04T10:03:21.958Z,14.65
2022-11-04T10:06:05.555Z,10.50
2022-11-04T10:08:57.411Z,18.15
2022-11-04T10:11:34.716Z,12.05
2022-11-04T10:14:35.464Z,13.30
2022-11-04T10:17:19.829Z,12.70
2022-11-04T10:20:04.663Z,12.65
2022-11-04T10:22:39.558Z,12.80
2022-11-04T10:25:15.637Z,13.70
2022-11-04T10:27:48.255Z,12.43
2022-11-04T10:30:22.728Z,9.35
2022-11-04T10:33:00.715Z,9.57
2022-11-04T10:35:36.078Z,11.65
2022-11-04T10:38:17.515Z,10.13
2022-11-04T10:40:50.468Z,14.38
2022-11-04T10:43:27.752Z,12.27
2022-11-04T10:46:15.586Z,10.57
2022-11-04T10:48:51.107Z,9.30
2022-11-04T10:51:22.379Z,11.30
2022-11-04T10:53:55.956Z,13.50
2022-11-04T10:56:35.878Z,9.73
2022-11-04T10:59:20.798Z,10.43
2022-11-04T11:01:53.955Z,13.02
2022-11-04T11:04:30.404Z,7.97
2022-11-04T11:07:02.037Z,10.57
2022-11-04T11:09:33.457Z,9.80
2022-11-04T11:12:29.493Z,11.00
2022-11-04T11:14:55.862Z,12.50
2022-11-04T11:17:37.649Z,11.70
2022-11-04T11:20:22.528Z,10.23
2022-11-04T11:22:54.231Z,10.90
2022-11-04T11:25:29.115Z,8.88
2022-11-04T11:28:00.503Z,10.68
2022-11-04T11:30:32.711Z,7.90
2022-11-04T11:33:08.344Z,9.57
2022-11-04T11:35:42.565Z,10.85
2022-11-04T11:38:22.458Z,11.60
2022-11-04T11:41:23.224Z,10.60
2022-11-04T11:43:47.494Z,12.32
2022-11-04T11:46:24.171Z,12.02
2022-11-04T11:49:01.067Z,14.32
2022-11-04T11:51:33.186Z,20.25
2022-11-04T11:54:33.656Z,10.30
2022-11-04T11:57:14.205Z,11.70
2022-11-04T12:02:48.921Z,13.32
2022-11-04T12:11:29.288Z,14.23
2022-11-04T12:14:03.352Z,13.85
2022-11-04T12:16:41.866Z,12.70
2022-11-04T12:19:32.294Z,15.30
2022-11-04T12:22:10.989Z,12.05
2022-11-04T12:24:48.169Z,14.32
2022-11-04T12:27:30.465Z,15.13
2022-11-04T12:30:09.918Z,11.70
2022-11-04T12:32:53.345Z,10.43
2022-11-04T12:35:34.315Z,16.00
2022-11-04T12:38:20.412Z,13.82
2022-11-04T12:43:59.889Z,14.77
2022-11-04T12:46:38.507Z,19.75
2022-11-04T12:49:46.415Z,21.55
2022-11-04T12:52:30.676Z,18.52
2022-11-04T12:55:19.492Z,16.95
2022-11-04T12:57:54.103Z,16.75
2022-11-04T13:00:25.374Z,13.35
2022-11-04T13:03:02.271Z,14.13
2022-11-04T13:05:41.197Z,15.15
2022-11-04T13:08:20.007Z,13.45
2022-11-04T13:10:58.469Z,11.85
2022-11-04T13:13:33.404Z,11.75
2022-11-04T13:16:07.566Z,11.50
2022-11-04T13:18:41.095Z,13.65
2022-11-04T13:21:14.954Z,11.23
2022-11-04T13:23:51.872Z,12.40
2022-11-04T13:26:22.647Z,11.00
2022-11-04T13:29:08.653Z,13.35
2022-11-04T13:31:51.575Z,12.35
2022-11-04T13:34:35.760Z,12.00
2022-11-04T13:37:16.063Z,12.98
2022-11-04T13:39:50.038Z,11.52
2022-11-04T13:43:21.183Z,10.60
2022-11-04T13:45:55.168Z,16.02
2022-11-04T13:48:27.867Z,11.95
2022-11-04T13:51:01.403Z,14.27
2022-11-04T13:53:46.875Z,15.80
2022-11-04T13:56:34.947Z,12.02
2022-11-04T13:59:19.321Z,17.58
2022-11-04T14:01:50.755Z,14.05
2022-11-04T14:04:28.303Z,17.05
2022-11-04T14:07:00.046Z,15.82
2022-11-04T14:09:53.477Z,15.15
2022-11-04T14:12:40.590Z,16.05
2022-11-04T14:15:41.943Z,13.75
2022-11-04T14:18:29.690Z,17.05
2022-11-04T14:21:10.603Z,13.38
2022-11-04T14:23:41.753Z,14.30
2022-11-04T14:26:13.958Z,15.32
2022-11-04T14:28:46.668Z,16.80
2022-11-04T14:31:35.326Z,19.60
2022-11-04T14:34:07.258Z,14.10
2022-11-04T14:36:40.087Z,21.67
2022-11-04T14:39:25.329Z,16.25
2022-11-04T14:41:57.984Z,18.65
2022-11-04T14:44:36.539Z,17.35
2022-11-04T14:47:18.717Z,16.60
2022-11-04T14:49:52.104Z,19.90
2022-11-04T14:52:25.042Z,18.63
2022-11-04T14:54:58.698Z,17.20
2022-11-04T14:57:31.249Z,22.80
2022-11-04T15:00:00.286Z,23.45
2022-11-04T15:02:33.967Z,17.95
2022-11-04T15:05:04.870Z,23.02
2022-11-04T15:07:37.592Z,17.88
2022-11-04T15:10:21.599Z,24.23
2022-11-04T15:12:55.265Z,21.25
2022-11-04T15:15:31.516Z,36.83
2022-11-04T15:18:08.290Z,36.20
2022-11-04T15:20:46.046Z,33.78
2022-11-04T15:23:19.091Z,38.47
2022-11-04T15:25:50.232Z,28.95
2022-11-04T15:28:22.856Z,31.77
2022-11-04T15:31:04.417Z,30.02
2022-11-04T15:33:38.806Z,32.63
2022-11-04T15:36:14.018Z,22.65
2022-11-04T15:38:48.544Z,20.42
2022-11-04T15:41:38.690Z,21.65
2022-11-04T15:44:17.402Z,23.15
2022-11-04T15:46:52.015Z,35.90
2022-11-04T15:49:27.986Z,36.33
2022-11-04T15:52:01.937Z,41.33
2022-11-04T15:54:34.548Z,51.40
2022-11-04T15:57:15.686Z,51.17
2022-11-04T15:59:51.618Z,43.30
2022-11-04T16:05:08.784Z,33.78
2022-11-04T16:07:40.957Z,30.00
2022-11-04T16:10:30.239Z,29.10
2022-11-04T16:13:01.186Z,25.38
2022-11-04T16:15:36.262Z,34.63
2022-11-04T16:18:07.443Z,24.60
2022-11-04T16:20:37.633Z,26.35
2022-11-04T16:23:08.778Z,27.63
2022-11-04T16:25:38.649Z,25.75
2022-11-04T16:28:08.547Z,25.88
2022-11-04T16:30:37.942Z,22.83
2022-11-04T16:33:12.283Z,21.83
2022-11-04T16:35:43.194Z,22.42
2022-11-04T16:38:13.880Z,21.88
2022-11-04T16:40:44.918Z,20.52
2022-11-04T16:43:14.945Z,33.30
2022-11-04T16:45:53.313Z,33.38
2022-11-04T16:48:24.815Z,27.10
2022-11-04T16:50:54.840Z,24.60
2022-11-04T16:53:25.397Z,27.73
2022-11-04T16:55:56.798Z,28.17
2022-11-04T16:58:26.046Z,28.02
2022-11-04T17:00:56.471Z,36.70
2022-11-04T17:03:27.852Z,32.13
2022-11-04T17:05:58.656Z,36.58
2022-11-04T17:08:29.204Z,28.92
2022-11-04T17:10:58.680Z,30.80
2022-11-04T17:13:30.865Z,29.38
2022-11-04T17:16:05.274Z,31.80
2022-11-04T17:18:35.495Z,62.10
2022-11-04T17:21:08.246Z,32.13
2022-11-04T17:23:38.906Z,35.05
2022-11-04T17:26:08.264Z,33.03
2022-11-04T17:28:37.695Z,32.88
2022-11-04T17:31:08.061Z,32.58
2022-11-04T17:33:37.177Z,32.65
2022-11-04T17:36:07.926Z,28.25
2022-11-04T17:38:38.738Z,32.25
2022-11-04T17:41:25.407Z,35.30
2022-11-04T17:44:03.557Z,25.50
2022-11-04T17:46:38.859Z,27.83
2022-11-04T17:49:12.749Z,23.83
2022-11-04T17:51:43.521Z,25.95
2022-11-04T17:54:14.177Z,23.90
2022-11-04T17:56:44.384Z,26.02
2022-11-04T17:59:15.072Z,24.33
2022-11-04T18:01:45.237Z,24.73
2022-11-04T18:04:16.729Z,24.58
2022-11-04T18:06:46.930Z,30.40
2022-11-04T18:09:18.426Z,32.47
2022-11-04T18:12:06.465Z,35.83
2022-11-04T18:14:35.566Z,28.00
2022-11-04T18:17:05.810Z,34.72
2022-11-04T18:19:34.915Z,30.45
2022-11-04T18:22:04.605Z,25.58
2022-11-04T18:24:35.455Z,37.15
2022-11-04T18:27:04.904Z,30.40
2022-11-04T18:29:34.341Z,35.83
2022-11-04T18:32:03.773Z,24.25
2022-11-04T18:34:33.146Z,34.38
2022-11-04T18:37:02.973Z,30.63
2022-11-04T18:39:32.353Z,47.40
2022-11-04T18:42:03.266Z,42.95
2022-11-04T18:44:32.506Z,25.70
2022-11-04T18:47:01.893Z,25.25
2022-11-04T18:49:31.292Z,24.60
2022-11-04T18:52:00.799Z,25.75
2022-11-04T18:54:30.075Z,26.10
2022-11-04T18:56:59.549Z,23.60
2022-11-04T18:59:30.093Z,22.27
2022-11-04T19:01:59.610Z,25.67
2022-11-04T19:04:28.946Z,22.05
2022-11-04T19:06:58.779Z,21.10
2022-11-04T19:12:34.612Z,19.65
2022-11-04T19:15:06.424Z,28.17
2022-11-04T19:17:37.914Z,36.65
2022-11-04T19:20:12.077Z,25.67
2022-11-04T19:22:42.372Z,17.60
2022-11-04T19:25:11.970Z,16.65
2022-11-04T19:27:41.441Z,17.75
2022-11-04T19:30:13.190Z,20.77
2022-11-04T19:32:43.944Z,26.55
2022-11-04T19:35:13.775Z,19.15
2022-11-04T19:37:43.185Z,18.02
2022-11-04T19:40:13.801Z,16.55
2022-11-04T19:43:00.426Z,14.30
2022-11-04T19:45:30.846Z,17.73
2022-11-04T19:48:00.442Z,18.30
2022-11-04T19:50:29.513Z,19.38
2022-11-04T19:52:59.491Z,19.48
2022-11-04T19:55:29.930Z,20.08
2022-11-04T19:57:59.347Z,20.10
2022-11-04T20:00:30.029Z,15.55
2022-11-04T20:03:00.258Z,17.45
2022-11-04T20:05:29.358Z,18.13
2022-11-04T20:08:04.854Z,18.60
2022-11-04T20:10:38.187Z,18.95
2022-11-04T20:13:25.363Z,21.10
2022-11-04T20:15:55.799Z,19.75
2022-11-04T20:18:25.160Z,16.42
2022-11-04T20:20:54.303Z,19.50
2022-11-04T20:23:23.803Z,20.42
2022-11-04T20:25:53.109Z,23.15
2022-11-04T20:28:22.530Z,19.85
2022-11-04T20:30:51.646Z,17.67
2022-11-04T20:33:22.472Z,19.63
2022-11-04T20:35:52.202Z,24.13
2022-11-04T20:38:21.622Z,22.35
2022-11-04T20:40:50.731Z,16.88
2022-11-04T20:43:20.153Z,18.05
2022-11-04T20:45:52.334Z,16.88
2022-11-04T20:48:23.384Z,18.13
2022-11-04T20:50:52.887Z,17.17
2022-11-04T20:53:22.249Z,18.95
2022-11-04T20:55:51.371Z,15.73
2022-11-04T20:58:20.753Z,19.73
2022-11-04T21:00:49.716Z,21.05
2022-11-04T21:03:19.089Z,16.08
2022-11-04T21:05:49.697Z,16.10
2022-11-04T21:08:19.222Z,15.57
2022-11-04T21:10:50.674Z,16.55
2022-11-04T21:13:20.505Z,15.60
2022-11-04T21:15:53.525Z,14.25
2022-11-04T21:18:23.590Z,18.35
2022-11-04T21:20:54.721Z,16.20
2022-11-04T21:23:24.496Z,19.40
2022-11-04T21:25:56.307Z,17.35
2022-11-04T21:28:26.525Z,20.48
2022-11-04T21:30:55.986Z,21.50
2022-11-04T21:33:25.352Z,21.88
2022-11-04T21:35:55.781Z,16.17
2022-11-04T21:38:25.055Z,15.70
2022-11-04T21:40:54.278Z,22.90
2022-11-04T21:43:23.651Z,25.10
2022-11-04T21:45:52.756Z,21.90
2022-11-04T21:48:22.405Z,18.23
2022-11-04T21:50:51.436Z,19.13
2022-11-04T21:53:22.246Z,21.52
2022-11-04T21:55:51.269Z,17.95
2022-11-04T21:58:20.919Z,16.42
2022-11-04T22:00:56.854Z,18.00
2022-11-04T22:03:26.841Z,21.77
2022-11-04T22:06:00.597Z,16.95
2022-11-04T22:08:32.507Z,16.55
2022-11-04T22:11:08.341Z,16.88
2022-11-04T22:13:38.496Z,15.80
2022-11-04T22:16:13.272Z,17.42
2022-11-04T22:18:43.134Z,15.93
2022-11-04T22:21:15.202Z,18.50
2022-11-04T22:23:46.658Z,19.77
2022-11-04T22:26:18.192Z,16.60
2022-11-04T22:28:48.368Z,16.48
2022-11-04T22:31:19.293Z,17.17
2022-11-04T22:33:49.410Z,12.65
2022-11-04T22:36:18.861Z,16.58
2022-11-04T22:38:49.711Z,13.63
2022-11-04T22:41:21.137Z,15.25
2022-11-04T22:43:51.133Z,12.05
2022-11-04T22:46:22.327Z,13.75
2022-11-04T22:48:51.682Z,18.02
2022-11-04T22:51:21.146Z,18.40
2022-11-04T22:54:00.021Z,12.30
2022-11-04T22:56:30.571Z,22.48
2022-11-04T22:59:00.491Z,12.73
2022-11-04T23:01:31.551Z,14.30
2022-11-04T23:04:02.829Z,13.40
2022-11-04T23:06:32.303Z,12.88
2022-11-04T23:09:03.449Z,15.98
2022-11-04T23:11:51.462Z,14.35
2022-11-04T23:14:40.283Z,18.60
2022-11-04T23:17:34.194Z,14.88
2022-11-04T23:20:04.882Z,13.50
2022-11-04T23:22:51.282Z,18.73
2022-11-04T23:25:22.481Z,17.48
2022-11-04T23:28:11.144Z,15.20
2022-11-04T23:30:42.343Z,14.13
2022-11-04T23:33:13.469Z,16.25
2022-11-04T23:36:03.997Z,11.07
2022-11-04T23:38:35.341Z,13.07
2022-11-04T23:41:25.485Z,13.98
2022-11-04T23:43:54.618Z,8.90
2022-11-04T23:46:43.542Z,15.68
2022-11-04T23:49:30.568Z,15.02
2022-11-04T23:52:17.447Z,12.25
2022-11-04T23:55:04.128Z,12.70
2022-11-04T23:57:52.424Z,13.85
